sensor_id;sensor_type;location;lat;lon;timestamp;pressure;altitude;pressure_sealevel;temperature;humidity
45793;BME280;31495;42.740;22.908;2023-04-01T00:00:58;92059.41;;;8.62;55.13
45793;BME280;31495;42.740;22.908;2023-04-01T00:01:58;92108.28;;;9.05;55.45
45793;BME280;31495;42.740;22.908;2023-04-01T00:02:58;92125.88;;;9.19;55.84
45793;BME280;31495;42.740;22.908;2023-04-01T00:03:58;92154.81;;;9.45;56.02
45793;BME280;31495;42.740;22.908;2023-04-01T00:05:01;92320.97;;;10.45;55.93
45793;BME280;31495;42.740;22.908;2023-04-01T00:06:01;92105.69;;;9.16;55.90
45793;BME280;31495;42.740;22.908;2023-04-01T00:07:01;92132.72;;;9.37;55.98
45793;BME280;31495;42.740;22.908;2023-04-01T00:08:01;92133.28;;;9.40;56.10
45793;BME280;31495;42.740;22.908;2023-04-01T00:09:01;92118.16;;;9.31;55.75
45793;BME280;31495;42.740;22.908;2023-04-01T00:10:01;92052.09;;;8.83;56.04
45793;BME280;31495;42.740;22.908;2023-04-01T00:11:01;92086.75;;;9.11;56.08
45793;BME280;31495;42.740;22.908;2023-04-01T00:12:01;92116.56;;;9.30;55.47
45793;BME280;31495;42.740;22.908;2023-04-01T00:13:01;92059.59;;;8.96;55.31
45793;BME280;31495;42.740;22.908;2023-04-01T00:14:07;92111.53;;;9.24;55.15
45793;BME280;31495;42.740;22.908;2023-04-01T00:15:10;92207.31;;;9.86;55.45
45793;BME280;31495;42.740;22.908;2023-04-01T00:16:10;92069.59;;;9.05;55.75
45793;BME280;31495;42.740;22.908;2023-04-01T00:17:10;92064.00;;;8.96;55.81
45793;BME280;31495;42.740;22.908;2023-04-01T00:18:10;92004.69;;;8.60;55.45
45793;BME280;31495;42.740;22.908;2023-04-01T00:19:11;92035.19;;;8.87;55.30
45793;BME280;31495;42.740;22.908;2023-04-01T00:20:11;92152.31;;;9.62;55.09
45793;BME280;31495;42.740;22.908;2023-04-01T00:21:12;92041.88;;;8.88;54.88
45793;BME280;31495;42.740;22.908;2023-04-01T00:22:13;92192.94;;;9.90;55.18
45793;BME280;31495;42.740;22.908;2023-04-01T00:23:13;91998.19;;;8.70;54.98
45793;BME280;31495;42.740;22.908;2023-04-01T00:24:13;92154.09;;;9.73;55.20
45793;BME280;31495;42.740;22.908;2023-04-01T00:25:15;92029.09;;;8.93;56.08
45793;BME280;31495;42.740;22.908;2023-04-01T00:26:16;92119.69;;;9.56;55.73
45793;BME280;31495;42.740;22.908;2023-04-01T00:27:18;92041.31;;;8.98;55.56
45793;BME280;31495;42.740;22.908;2023-04-01T00:28:19;92007.69;;;8.81;55.76
45793;BME280;31495;42.740;22.908;2023-04-01T00:29:19;92174.06;;;9.90;55.97
45793;BME280;31495;42.740;22.908;2023-04-01T00:30:19;92061.72;;;9.11;56.08
45793;BME280;31495;42.740;22.908;2023-04-01T00:31:19;92039.75;;;8.85;57.25
45793;BME280;31495;42.740;22.908;2023-04-01T00:32:20;92064.31;;;8.99;57.14
45793;BME280;31495;42.740;22.908;2023-04-01T00:33:20;92155.34;;;9.59;57.51
45793;BME280;31495;42.740;22.908;2023-04-01T00:34:23;92124.28;;;9.42;57.13
45793;BME280;31495;42.740;22.908;2023-04-01T00:35:23;92184.09;;;9.74;57.10
45793;BME280;31495;42.740;22.908;2023-04-01T00:36:23;92008.72;;;8.56;58.05
45793;BME280;31495;42.740;22.908;2023-04-01T00:37:23;92183.53;;;9.72;57.46
45793;BME280;31495;42.740;22.908;2023-04-01T00:38:24;92070.84;;;9.02;57.47
45793;BME280;31495;42.740;22.908;2023-04-01T00:39:24;92088.91;;;9.02;56.91
45793;BME280;31495;42.740;22.908;2023-04-01T00:41:27;92086.97;;;8.97;56.31
45793;BME280;31495;42.740;22.908;2023-04-01T00:42:27;91966.00;;;8.25;56.84
45793;BME280;31495;42.740;22.908;2023-04-01T00:43:27;92115.00;;;9.17;58.32
45793;BME280;31495;42.740;22.908;2023-04-01T00:44:30;92051.34;;;8.71;58.62
45793;BME280;31495;42.740;22.908;2023-04-01T00:45:35;92017.25;;;8.45;57.98
45793;BME280;31495;42.740;22.908;2023-04-01T00:46:35;91999.44;;;8.43;58.14
45793;BME280;31495;42.740;22.908;2023-04-01T00:47:36;92095.16;;;9.06;57.32
45793;BME280;31495;42.740;22.908;2023-04-01T00:48:39;92020.72;;;8.62;56.87
45793;BME280;31495;42.740;22.908;2023-04-01T00:49:46;92110.63;;;9.30;57.15
45793;BME280;31495;42.740;22.908;2023-04-01T00:50:56;92054.78;;;8.88;57.73
45793;BME280;31495;42.740;22.908;2023-04-01T00:51:59;92060.97;;;8.99;56.78
45793;BME280;31495;42.740;22.908;2023-04-01T00:53:02;91946.94;;;8.14;57.13
45793;BME280;31495;42.740;22.908;2023-04-01T00:54:02;92229.97;;;10.08;57.38
45793;BME280;31495;42.740;22.908;2023-04-01T00:55:04;91948.75;;;8.25;56.19
45793;BME280;31495;42.740;22.908;2023-04-01T00:56:19;91981.69;;;8.35;55.64
45793;BME280;31495;42.740;22.908;2023-04-01T00:57:25;91951.66;;;8.17;53.74
45793;BME280;31495;42.740;22.908;2023-04-01T00:58:29;92084.63;;;9.08;52.98
45793;BME280;31495;42.740;22.908;2023-04-01T00:59:37;92111.75;;;9.34;54.01
45793;BME280;31495;42.740;22.908;2023-04-01T01:00:39;92048.41;;;8.91;52.78
45793;BME280;31495;42.740;22.908;2023-04-01T01:01:39;92217.94;;;10.14;52.33
45793;BME280;31495;42.740;22.908;2023-04-01T01:02:41;92112.81;;;9.62;51.14
45793;BME280;31495;42.740;22.908;2023-04-01T01:03:42;92184.56;;;10.12;51.54
45793;BME280;31495;42.740;22.908;2023-04-01T01:04:41;92177.34;;;10.14;50.89
45793;BME280;31495;42.740;22.908;2023-04-01T01:06:08;92149.06;;;10.07;50.71
45793;BME280;31495;42.740;22.908;2023-04-01T01:07:25;92212.13;;;10.47;50.66
45793;BME280;31495;42.740;22.908;2023-04-01T01:11:10;92193.78;;;10.48;50.61
45793;BME280;31495;42.740;22.908;2023-04-01T01:14:06;92176.28;;;10.39;49.84
45793;BME280;31495;42.740;22.908;2023-04-01T01:16:31;92207.63;;;10.71;49.46
45793;BME280;31495;42.740;22.908;2023-04-01T01:19:57;92176.31;;;10.27;50.18
45793;BME280;31495;42.740;22.908;2023-04-01T01:25:52;92195.81;;;10.46;50.94
45793;BME280;31495;42.740;22.908;2023-04-01T01:27:09;92169.88;;;10.29;52.03
45793;BME280;31495;42.740;22.908;2023-04-01T01:31:03;92211.44;;;10.52;51.89
45793;BME280;31495;42.740;22.908;2023-04-01T01:32:30;92200.06;;;10.53;51.19
45793;BME280;31495;42.740;22.908;2023-04-01T01:34:04;92029.00;;;9.41;51.36
45793;BME280;31495;42.740;22.908;2023-04-01T01:36:15;92158.66;;;10.24;53.30
45793;BME280;31495;42.740;22.908;2023-04-01T01:37:16;92194.78;;;10.47;53.55
45793;BME280;31495;42.740;22.908;2023-04-01T01:38:19;92190.22;;;10.38;53.51
45793;BME280;31495;42.740;22.908;2023-04-01T01:39:23;92198.09;;;10.43;52.32
45793;BME280;31495;42.740;22.908;2023-04-01T01:40:28;92180.78;;;10.32;52.23
45793;BME280;31495;42.740;22.908;2023-04-01T01:41:30;92133.69;;;10.01;52.87
45793;BME280;31495;42.740;22.908;2023-04-01T01:42:34;92170.81;;;10.23;52.71
45793;BME280;31495;42.740;22.908;2023-04-01T01:43:43;92210.53;;;10.46;53.07
45793;BME280;31495;42.740;22.908;2023-04-01T01:44:46;92202.31;;;10.49;53.00
45793;BME280;31495;42.740;22.908;2023-04-01T01:45:52;92009.75;;;9.19;52.98
45793;BME280;31495;42.740;22.908;2023-04-01T01:46:53;91953.50;;;8.93;53.02
45793;BME280;31495;42.740;22.908;2023-04-01T01:47:55;92026.88;;;9.37;53.19
45793;BME280;31495;42.740;22.908;2023-04-01T01:48:59;92191.44;;;10.47;53.32
45793;BME280;31495;42.740;22.908;2023-04-01T01:50:00;92039.19;;;9.47;53.73
45793;BME280;31495;42.740;22.908;2023-04-01T01:51:01;92197.06;;;10.44;53.76
45793;BME280;31495;42.740;22.908;2023-04-01T01:52:01;92008.19;;;9.18;53.93
45793;BME280;31495;42.740;22.908;2023-04-01T01:53:06;92020.88;;;9.20;54.00
45793;BME280;31495;42.740;22.908;2023-04-01T01:54:12;92186.97;;;10.30;54.27
45793;BME280;31495;42.740;22.908;2023-04-01T01:55:30;92190.00;;;10.39;54.20
45793;BME280;31495;42.740;22.908;2023-04-01T01:56:30;91953.53;;;8.81;54.19
45793;BME280;31495;42.740;22.908;2023-04-01T01:57:36;92193.84;;;10.37;54.65
45793;BME280;31495;42.740;22.908;2023-04-01T01:58:49;92007.44;;;9.06;54.74
45793;BME280;31495;42.740;22.908;2023-04-01T01:59:54;92191.72;;;10.34;54.70
45793;BME280;31495;42.740;22.908;2023-04-01T02:00:59;91981.00;;;8.87;54.69
45793;BME280;31495;42.740;22.908;2023-04-01T02:02:01;91944.25;;;8.68;54.86
45793;BME280;31495;42.740;22.908;2023-04-01T02:03:07;91915.91;;;8.56;54.87
45793;BME280;31495;42.740;22.908;2023-04-01T02:04:09;91948.28;;;8.76;54.77
45793;BME280;31495;42.740;22.908;2023-04-01T02:05:13;91929.22;;;8.65;54.56
45793;BME280;31495;42.740;22.908;2023-04-01T02:06:18;92021.53;;;9.27;54.29
45793;BME280;31495;42.740;22.908;2023-04-01T02:07:23;91881.72;;;8.37;54.79
45793;BME280;31495;42.740;22.908;2023-04-01T02:08:29;91931.13;;;8.70;54.86
45793;BME280;31495;42.740;22.908;2023-04-01T02:09:31;92058.00;;;9.19;54.49
45793;BME280;31495;42.740;22.908;2023-04-01T02:10:36;91947.16;;;8.24;55.62
45793;BME280;31495;42.740;22.908;2023-04-01T02:11:50;92180.25;;;9.89;55.70
45793;BME280;31495;42.740;22.908;2023-04-01T02:12:51;91950.22;;;8.33;55.72
45793;BME280;31495;42.740;22.908;2023-04-01T02:13:56;92029.00;;;8.88;55.92
45793;BME280;31495;42.740;22.908;2023-04-01T02:15:05;91910.78;;;8.09;56.66
45793;BME280;31495;42.740;22.908;2023-04-01T02:16:16;92032.81;;;8.86;56.25
45793;BME280;31495;42.740;22.908;2023-04-01T02:17:23;91909.31;;;8.01;55.92
45793;BME280;31495;42.740;22.908;2023-04-01T02:18:26;92035.75;;;8.77;56.60
45793;BME280;31495;42.740;22.908;2023-04-01T02:19:39;92036.72;;;8.88;56.02
45793;BME280;31495;42.740;22.908;2023-04-01T02:20:41;92075.97;;;9.14;55.60
45793;BME280;31495;42.740;22.908;2023-04-01T02:21:42;92035.28;;;8.92;55.76
45793;BME280;31495;42.740;22.908;2023-04-01T02:22:47;92074.97;;;8.91;56.18
45793;BME280;31495;42.740;22.908;2023-04-01T02:23:50;92101.00;;;9.13;55.95
45793;BME280;31495;42.740;22.908;2023-04-01T02:24:58;92041.34;;;8.74;56.31
45793;BME280;31495;42.740;22.908;2023-04-01T02:25:59;91899.78;;;7.78;56.21
45793;BME280;31495;42.740;22.908;2023-04-01T02:26:59;92033.16;;;8.77;56.69
45793;BME280;31495;42.740;22.908;2023-04-01T02:28:00;91919.38;;;8.03;57.01
45793;BME280;31495;42.740;22.908;2023-04-01T02:29:01;91935.19;;;8.18;57.49
45793;BME280;31495;42.740;22.908;2023-04-01T02:30:03;92120.50;;;9.45;57.38
45793;BME280;31495;42.740;22.908;2023-04-01T02:31:03;92032.94;;;8.91;57.22
45793;BME280;31495;42.740;22.908;2023-04-01T02:32:05;91913.34;;;8.21;56.72
45793;BME280;31495;42.740;22.908;2023-04-01T02:33:06;91945.06;;;8.33;56.81
45793;BME280;31495;42.740;22.908;2023-04-01T02:34:06;92019.72;;;8.87;56.74
45793;BME280;31495;42.740;22.908;2023-04-01T02:35:11;92003.88;;;8.83;56.58
45793;BME280;31495;42.740;22.908;2023-04-01T02:36:13;91952.25;;;8.43;56.39
45793;BME280;31495;42.740;22.908;2023-04-01T02:37:15;91999.06;;;8.87;56.50
45793;BME280;31495;42.740;22.908;2023-04-01T02:38:14;92027.53;;;8.92;56.29
45793;BME280;31495;42.740;22.908;2023-04-01T02:39:15;91979.00;;;8.65;56.83
45793;BME280;31495;42.740;22.908;2023-04-01T02:40:16;91947.28;;;8.41;56.96
45793;BME280;31495;42.740;22.908;2023-04-01T02:41:16;92036.50;;;9.01;57.09
45793;BME280;31495;42.740;22.908;2023-04-01T02:42:16;92078.22;;;9.22;56.80
45793;BME280;31495;42.740;22.908;2023-04-01T02:43:16;92054.19;;;9.10;57.16
45793;BME280;31495;42.740;22.908;2023-04-01T02:44:16;92128.22;;;9.45;57.75
45793;BME280;31495;42.740;22.908;2023-04-01T02:45:19;92029.53;;;8.90;57.65
45793;BME280;31495;42.740;22.908;2023-04-01T02:46:19;92143.94;;;9.55;58.39
45793;BME280;31495;42.740;22.908;2023-04-01T02:47:19;92063.28;;;9.12;58.82
45793;BME280;31495;42.740;22.908;2023-04-01T02:48:19;91906.72;;;8.13;58.11
45793;BME280;31495;42.740;22.908;2023-04-01T02:49:19;91967.59;;;8.50;58.66
45793;BME280;31495;42.740;22.908;2023-04-01T02:50:19;92196.81;;;10.05;60.13
45793;BME280;31495;42.740;22.908;2023-04-01T02:51:19;91959.38;;;8.41;60.77
45793;BME280;31495;42.740;22.908;2023-04-01T02:52:19;91971.59;;;8.34;60.95
45793;BME280;31495;42.740;22.908;2023-04-01T02:53:18;92053.78;;;8.89;61.16
45793;BME280;31495;42.740;22.908;2023-04-01T02:54:19;92056.91;;;8.91;62.56
45793;BME280;31495;42.740;22.908;2023-04-01T02:55:19;92052.31;;;8.81;62.64
45793;BME280;31495;42.740;22.908;2023-04-01T02:56:19;91962.53;;;8.19;62.45
45793;BME280;31495;42.740;22.908;2023-04-01T02:57:19;91951.00;;;8.10;63.25
45793;BME280;31495;42.740;22.908;2023-04-01T02:58:19;91945.03;;;8.21;63.62
45793;BME280;31495;42.740;22.908;2023-04-01T02:59:19;91957.25;;;8.26;63.88
45793;BME280;31495;42.740;22.908;2023-04-01T03:00:19;91964.75;;;8.27;64.27
45793;BME280;31495;42.740;22.908;2023-04-01T03:01:19;92063.34;;;8.89;64.64
45793;BME280;31495;42.740;22.908;2023-04-01T03:02:20;91958.84;;;8.15;64.82
45793;BME280;31495;42.740;22.908;2023-04-01T03:03:19;92053.56;;;8.79;65.62
45793;BME280;31495;42.740;22.908;2023-04-01T03:04:19;91995.72;;;8.51;66.11
45793;BME280;31495;42.740;22.908;2023-04-01T03:05:19;91999.06;;;8.63;66.35
45793;BME280;31495;42.740;22.908;2023-04-01T03:06:19;92072.16;;;9.05;67.16
45793;BME280;31495;42.740;22.908;2023-04-01T03:07:19;92027.88;;;8.84;67.01
45793;BME280;31495;42.740;22.908;2023-04-01T03:08:19;92026.97;;;8.78;67.79
45793;BME280;31495;42.740;22.908;2023-04-01T03:09:19;91886.69;;;7.80;67.84
45793;BME280;31495;42.740;22.908;2023-04-01T03:10:19;92015.56;;;8.62;68.00
45793;BME280;31495;42.740;22.908;2023-04-01T03:11:19;91894.75;;;7.83;68.27
45793;BME280;31495;42.740;22.908;2023-04-01T03:12:20;91898.69;;;7.86;68.64
45793;BME280;31495;42.740;22.908;2023-04-01T03:13:20;91948.09;;;8.18;69.52
45793;BME280;31495;42.740;22.908;2023-04-01T03:14:20;92009.38;;;8.63;69.46
45793;BME280;31495;42.740;22.908;2023-04-01T03:15:21;91980.38;;;8.44;69.46
45793;BME280;31495;42.740;22.908;2023-04-01T03:16:20;91900.91;;;7.94;70.00
45793;BME280;31495;42.740;22.908;2023-04-01T03:17:20;91999.53;;;8.60;69.96
45793;BME280;31495;42.740;22.908;2023-04-01T03:18:21;91882.78;;;7.89;69.98
45793;BME280;31495;42.740;22.908;2023-04-01T03:19:20;91887.81;;;7.84;70.19
45793;BME280;31495;42.740;22.908;2023-04-01T03:20:20;91842.38;;;7.66;69.35
45793;BME280;31495;42.740;22.908;2023-04-01T03:21:22;92040.53;;;8.97;69.41
45793;BME280;31495;42.740;22.908;2023-04-01T03:22:22;92039.88;;;9.02;69.77
45793;BME280;31495;42.740;22.908;2023-04-01T03:23:23;92116.97;;;9.63;69.63
45793;BME280;31495;42.740;22.908;2023-04-01T03:24:23;91941.22;;;8.36;68.30
45793;BME280;31495;42.740;22.908;2023-04-01T03:25:23;92088.50;;;9.34;68.93
45793;BME280;31495;42.740;22.908;2023-04-01T03:26:23;91989.88;;;8.56;69.22
45793;BME280;31495;42.740;22.908;2023-04-01T03:27:23;91884.34;;;7.90;69.34
45793;BME280;31495;42.740;22.908;2023-04-01T03:28:23;91947.50;;;8.40;69.54
45793;BME280;31495;42.740;22.908;2023-04-01T03:29:23;91957.03;;;8.39;70.07
45793;BME280;31495;42.740;22.908;2023-04-01T03:30:23;91873.03;;;7.91;70.26
45793;BME280;31495;42.740;22.908;2023-04-01T03:31:23;91827.56;;;7.61;70.00
45793;BME280;31495;42.740;22.908;2023-04-01T03:32:23;91866.75;;;7.87;70.20
45793;BME280;31495;42.740;22.908;2023-04-01T03:33:23;91862.84;;;7.84;69.28
45793;BME280;31495;42.740;22.908;2023-04-01T03:34:24;91859.03;;;7.87;68.61
45793;BME280;31495;42.740;22.908;2023-04-01T03:35:24;92009.25;;;8.82;69.31
45793;BME280;31495;42.740;22.908;2023-04-01T03:36:24;92009.72;;;8.79;69.81
45793;BME280;31495;42.740;22.908;2023-04-01T03:37:24;91874.03;;;7.78;70.30
45793;BME280;31495;42.740;22.908;2023-04-01T03:38:24;91874.03;;;7.78;69.91
45793;BME280;31495;42.740;22.908;2023-04-01T03:39:24;91885.47;;;7.94;69.25
45793;BME280;31495;42.740;22.908;2023-04-01T03:40:24;92033.34;;;8.99;68.56
45793;BME280;31495;42.740;22.908;2023-04-01T03:41:26;91895.53;;;8.19;68.38
45793;BME280;31495;42.740;22.908;2023-04-01T03:42:26;91942.91;;;8.42;68.42
45793;BME280;31495;42.740;22.908;2023-04-01T03:43:27;91838.53;;;7.68;68.59
45793;BME280;31495;42.740;22.908;2023-04-01T03:44:31;92098.06;;;9.33;69.20
45793;BME280;31495;42.740;22.908;2023-04-01T03:45:31;91875.06;;;7.89;69.16
45793;BME280;31495;42.740;22.908;2023-04-01T03:46:31;91811.78;;;7.46;70.07
45793;BME280;31495;42.740;22.908;2023-04-01T03:47:31;92109.44;;;9.49;69.15
45793;BME280;31495;42.740;22.908;2023-04-01T03:48:31;91907.97;;;8.22;68.47
45793;BME280;31495;42.740;22.908;2023-04-01T03:49:31;92089.84;;;9.36;68.40
45793;BME280;31495;42.740;22.908;2023-04-01T03:50:31;91944.13;;;8.39;68.81
45793;BME280;31495;42.740;22.908;2023-04-01T03:51:34;91887.94;;;8.01;68.37
45793;BME280;31495;42.740;22.908;2023-04-01T03:52:34;91889.50;;;8.02;68.46
45793;BME280;31495;42.740;22.908;2023-04-01T03:53:34;91890.16;;;8.09;67.56
45793;BME280;31495;42.740;22.908;2023-04-01T03:54:34;91827.47;;;7.68;67.43
45793;BME280;31495;42.740;22.908;2023-04-01T03:55:36;91845.72;;;7.78;68.03
45793;BME280;31495;42.740;22.908;2023-04-01T03:56:36;91844.13;;;7.77;68.03
45793;BME280;31495;42.740;22.908;2023-04-01T03:57:36;92013.63;;;8.93;68.29
45793;BME280;31495;42.740;22.908;2023-04-01T03:58:36;91844.38;;;7.76;68.40
45793;BME280;31495;42.740;22.908;2023-04-01T03:59:38;91844.72;;;7.79;68.47
45793;BME280;31495;42.740;22.908;2023-04-01T04:00:38;92086.81;;;9.40;68.65
45793;BME280;31495;42.740;22.908;2023-04-01T04:01:38;91874.72;;;8.09;68.66
45793;BME280;31495;42.740;22.908;2023-04-01T04:02:38;91848.50;;;7.88;68.57
45793;BME280;31495;42.740;22.908;2023-04-01T04:03:38;91933.50;;;8.48;68.32
45793;BME280;31495;42.740;22.908;2023-04-01T04:04:38;91834.63;;;7.89;68.01
45793;BME280;31495;42.740;22.908;2023-04-01T04:05:46;91807.19;;;7.71;67.69
45793;BME280;31495;42.740;22.908;2023-04-01T04:06:46;92094.97;;;9.60;68.21
45793;BME280;31495;42.740;22.908;2023-04-01T04:07:46;91959.72;;;8.68;68.60
45793;BME280;31495;42.740;22.908;2023-04-01T04:08:46;92082.00;;;9.43;68.65
45793;BME280;31495;42.740;22.908;2023-04-01T04:09:46;91891.03;;;8.15;68.60
45793;BME280;31495;42.740;22.908;2023-04-01T04:10:47;91837.75;;;7.91;68.70
45793;BME280;31495;42.740;22.908;2023-04-01T04:11:48;91800.84;;;7.74;68.72
45793;BME280;31495;42.740;22.908;2023-04-01T04:12:49;91820.16;;;7.88;69.13
45793;BME280;31495;42.740;22.908;2023-04-01T04:13:49;91887.09;;;8.36;69.39
45793;BME280;31495;42.740;22.908;2023-04-01T04:14:52;91904.81;;;8.44;69.27
45793;BME280;31495;42.740;22.908;2023-04-01T04:15:52;91879.38;;;8.36;69.18
45793;BME280;31495;42.740;22.908;2023-04-01T04:16:52;91864.81;;;8.29;69.05
45793;BME280;31495;42.740;22.908;2023-04-01T04:17:54;91827.09;;;8.00;69.38
45793;BME280;31495;42.740;22.908;2023-04-01T04:18:55;92070.47;;;9.63;69.89
45793;BME280;31495;42.740;22.908;2023-04-01T04:19:55;91905.97;;;8.48;69.65
45793;BME280;31495;42.740;22.908;2023-04-01T04:20:55;91821.06;;;7.94;70.00
45793;BME280;31495;42.740;22.908;2023-04-01T04:21:55;91933.16;;;8.68;69.87
45793;BME280;31495;42.740;22.908;2023-04-01T04:22:55;91922.50;;;8.64;69.85
45793;BME280;31495;42.740;22.908;2023-04-01T04:23:55;91853.75;;;8.17;69.81
45793;BME280;31495;42.740;22.908;2023-04-01T04:24:55;91925.44;;;8.68;69.97
45793;BME280;31495;42.740;22.908;2023-04-01T04:26:07;92050.59;;;9.63;69.98
45793;BME280;31495;42.740;22.908;2023-04-01T04:27:08;91891.47;;;8.59;69.49
45793;BME280;31495;42.740;22.908;2023-04-01T04:28:08;91827.66;;;8.14;69.26
45793;BME280;31495;42.740;22.908;2023-04-01T04:29:08;91789.16;;;7.83;69.34
45793;BME280;31495;42.740;22.908;2023-04-01T04:30:08;91794.53;;;7.82;69.76
45793;BME280;31495;42.740;22.908;2023-04-01T04:31:08;91808.66;;;7.91;70.27
45793;BME280;31495;42.740;22.908;2023-04-01T04:32:09;91771.94;;;7.72;70.07
45793;BME280;31495;42.740;22.908;2023-04-01T04:33:09;91831.13;;;8.07;70.90
45793;BME280;31495;42.740;22.908;2023-04-01T04:34:09;92042.75;;;9.58;70.66
45793;BME280;31495;42.740;22.908;2023-04-01T04:35:08;91981.63;;;9.06;70.78
45793;BME280;31495;42.740;22.908;2023-04-01T04:36:09;91821.19;;;7.99;70.66
45793;BME280;31495;42.740;22.908;2023-04-01T04:37:09;91900.69;;;8.55;70.47
45793;BME280;31495;42.740;22.908;2023-04-01T04:38:09;91911.88;;;8.60;70.33
45793;BME280;31495;42.740;22.908;2023-04-01T04:39:09;91900.44;;;8.56;69.86
45793;BME280;31495;42.740;22.908;2023-04-01T04:40:08;91761.53;;;7.67;69.83
45793;BME280;31495;42.740;22.908;2023-04-01T04:41:13;91885.56;;;8.46;70.32
45793;BME280;31495;42.740;22.908;2023-04-01T04:42:14;91784.34;;;7.75;70.39
45793;BME280;31495;42.740;22.908;2023-04-01T04:43:16;91789.63;;;7.80;70.56
45793;BME280;31495;42.740;22.908;2023-04-01T04:44:16;91758.06;;;7.61;70.36
45793;BME280;31495;42.740;22.908;2023-04-01T04:45:16;91778.19;;;7.88;70.57
45793;BME280;31495;42.740;22.908;2023-04-01T04:46:16;92010.88;;;9.52;70.52
45793;BME280;31495;42.740;22.908;2023-04-01T04:47:17;91761.97;;;7.87;70.29
45793;BME280;31495;42.740;22.908;2023-04-01T04:48:17;92011.00;;;9.57;70.23
45793;BME280;31495;42.740;22.908;2023-04-01T04:49:20;92009.75;;;9.60;70.66
45793;BME280;31495;42.740;22.908;2023-04-01T04:50:21;91870.06;;;8.58;70.67
45793;BME280;31495;42.740;22.908;2023-04-01T04:51:22;91764.97;;;7.96;70.91
45793;BME280;31495;42.740;22.908;2023-04-01T04:52:22;91982.84;;;9.44;71.00
45793;BME280;31495;42.740;22.908;2023-04-01T04:53:21;91997.19;;;9.52;71.07
45793;BME280;31495;42.740;22.908;2023-04-01T04:54:21;91803.31;;;8.21;71.15
45793;BME280;31495;42.740;22.908;2023-04-01T04:55:22;91716.56;;;7.58;71.06
45793;BME280;31495;42.740;22.908;2023-04-01T04:56:22;91865.91;;;8.57;71.11
45793;BME280;31495;42.740;22.908;2023-04-01T04:57:25;91876.97;;;8.70;71.14
45793;BME280;31495;42.740;22.908;2023-04-01T04:58:25;92003.13;;;9.52;70.95
45793;BME280;31495;42.740;22.908;2023-04-01T04:59:25;91895.78;;;8.82;71.15
45793;BME280;31495;42.740;22.908;2023-04-01T05:00:27;91785.09;;;8.11;70.45
45793;BME280;31495;42.740;22.908;2023-04-01T05:01:27;91831.44;;;8.46;70.45
45793;BME280;31495;42.740;22.908;2023-04-01T05:02:27;91882.00;;;8.76;70.44
45793;BME280;31495;42.740;22.908;2023-04-01T05:03:27;91758.94;;;7.90;70.14
45793;BME280;31495;42.740;22.908;2023-04-01T05:04:27;91699.44;;;7.51;69.81
45793;BME280;31495;42.740;22.908;2023-04-01T05:05:30;92009.19;;;9.58;70.31
45793;BME280;31495;42.740;22.908;2023-04-01T05:06:30;91980.50;;;9.43;70.19
45793;BME280;31495;42.740;22.908;2023-04-01T05:07:30;91727.72;;;7.75;69.99
45793;BME280;31495;42.740;22.908;2023-04-01T05:08:30;91848.56;;;8.53;70.50
45793;BME280;31495;42.740;22.908;2023-04-01T05:09:32;91851.00;;;8.59;70.21
45793;BME280;31495;42.740;22.908;2023-04-01T05:10:32;91829.31;;;8.43;69.62
45793;BME280;31495;42.740;22.908;2023-04-01T05:11:32;91968.53;;;9.36;69.66
45793;BME280;31495;42.740;22.908;2023-04-01T05:12:32;91784.31;;;8.10;69.62
45793;BME280;31495;42.740;22.908;2023-04-01T05:13:36;91802.53;;;8.21;70.15
45793;BME280;31495;42.740;22.908;2023-04-01T05:14:36;91814.75;;;8.25;70.27
45793;BME280;31495;42.740;22.908;2023-04-01T05:15:37;91771.59;;;7.92;70.18
45793;BME280;31495;42.740;22.908;2023-04-01T05:16:36;91754.16;;;7.82;70.48
45793;BME280;31495;42.740;22.908;2023-04-01T05:17:36;91822.56;;;8.31;70.57
45793;BME280;31495;42.740;22.908;2023-04-01T05:18:36;91834.88;;;8.40;70.74
45793;BME280;31495;42.740;22.908;2023-04-01T05:19:35;91855.13;;;8.60;70.82
45793;BME280;31495;42.740;22.908;2023-04-01T05:20:35;91950.25;;;9.26;70.73
45793;BME280;31495;42.740;22.908;2023-04-01T05:21:35;91949.47;;;9.26;70.74
45793;BME280;31495;42.740;22.908;2023-04-01T05:22:34;91942.84;;;9.30;70.18
45793;BME280;31495;42.740;22.908;2023-04-01T05:23:34;91986.25;;;9.62;70.34
45793;BME280;31495;42.740;22.908;2023-04-01T05:24:33;91947.41;;;9.40;70.22
45793;BME280;31495;42.740;22.908;2023-04-01T05:25:37;91943.94;;;9.34;69.83
45793;BME280;31495;42.740;22.908;2023-04-01T05:26:37;91971.47;;;9.57;69.44
45793;BME280;31495;42.740;22.908;2023-04-01T05:27:36;91938.72;;;9.46;69.48
45793;BME280;31495;42.740;22.908;2023-04-01T05:28:36;91943.50;;;9.54;69.11
45793;BME280;31495;42.740;22.908;2023-04-01T05:29:35;91960.59;;;9.72;68.86
45793;BME280;31495;42.740;22.908;2023-04-01T05:30:35;91945.56;;;9.69;65.32
45793;BME280;31495;42.740;22.908;2023-04-01T05:31:34;91940.31;;;9.64;61.52
45793;BME280;31495;42.740;22.908;2023-04-01T05:32:33;91936.13;;;9.74;61.74
45793;BME280;31495;42.740;22.908;2023-04-01T05:33:33;91942.56;;;9.89;62.49
45793;BME280;31495;42.740;22.908;2023-04-01T05:34:33;91931.41;;;9.88;64.66
45793;BME280;31495;42.740;22.908;2023-04-01T05:35:32;91936.59;;;10.05;65.03
45793;BME280;31495;42.740;22.908;2023-04-01T05:36:32;91960.69;;;10.28;65.18
45793;BME280;31495;42.740;22.908;2023-04-01T05:37:34;91905.59;;;10.05;65.30
45793;BME280;31495;42.740;22.908;2023-04-01T05:38:34;91922.97;;;10.27;65.42
45793;BME280;31495;42.740;22.908;2023-04-01T05:39:37;91941.81;;;10.44;64.44
45793;BME280;31495;42.740;22.908;2023-04-01T05:40:37;91923.59;;;10.34;62.49
45793;BME280;31495;42.740;22.908;2023-04-01T05:41:37;91961.16;;;10.59;60.72
45793;BME280;31495;42.740;22.908;2023-04-01T05:42:37;91959.63;;;10.58;60.14
45793;BME280;31495;42.740;22.908;2023-04-01T05:43:37;91969.31;;;10.51;57.18
45793;BME280;31495;42.740;22.908;2023-04-01T05:44:37;91968.28;;;10.69;59.05
45793;BME280;31495;42.740;22.908;2023-04-01T05:45:36;91939.47;;;10.60;59.24